sensor_id;sensor_type;location;lat;lon;timestamp;temperature;humidity
42037;DHT22;30340;52.004;5.908;2023-06-14T00:01:37;21.10;41.40
42037;DHT22;30340;52.004;5.908;2023-06-14T00:04:03;21.00;41.60
42037;DHT22;30340;52.004;5.908;2023-06-14T00:06:31;21.00;41.80
42037;DHT22;30340;52.004;5.908;2023-06-14T00:08:56;21.00;41.90
42037;DHT22;30340;52.004;5.908;2023-06-14T00:11:22;20.90;41.90
42037;DHT22;30340;52.004;5.908;2023-06-14T00:13:48;20.90;42.00
42037;DHT22;30340;52.004;5.908;2023-06-14T00:16:13;20.80;42.10
42037;DHT22;30340;52.004;5.908;2023-06-14T00:18:39;20.90;42.30
42037;DHT22;30340;52.004;5.908;2023-06-14T00:21:05;20.80;42.50
42037;DHT22;30340;52.004;5.908;2023-06-14T00:23:30;20.80;42.60
42037;DHT22;30340;52.004;5.908;2023-06-14T00:25:56;20.80;42.60
42037;DHT22;30340;52.004;5.908;2023-06-14T00:28:21;20.80;42.70
42037;DHT22;30340;52.004;5.908;2023-06-14T00:30:47;20.70;42.90
42037;DHT22;30340;52.004;5.908;2023-06-14T00:33:13;20.60;43.00
42037;DHT22;30340;52.004;5.908;2023-06-14T00:35:38;20.60;43.10
42037;DHT22;30340;52.004;5.908;2023-06-14T00:38:04;20.60;43.10
42037;DHT22;30340;52.004;5.908;2023-06-14T00:40:29;20.60;43.20
42037;DHT22;30340;52.004;5.908;2023-06-14T00:42:55;20.60;43.30
42037;DHT22;30340;52.004;5.908;2023-06-14T00:45:20;20.60;43.50
42037;DHT22;30340;52.004;5.908;2023-06-14T00:47:47;20.60;43.60
42037;DHT22;30340;52.004;5.908;2023-06-14T00:50:16;20.60;43.50
42037;DHT22;30340;52.004;5.908;2023-06-14T00:52:42;20.60;43.60
42037;DHT22;30340;52.004;5.908;2023-06-14T00:55:08;20.50;43.80
42037;DHT22;30340;52.004;5.908;2023-06-14T00:57:33;20.50;44.20
42037;DHT22;30340;52.004;5.908;2023-06-14T01:00:03;20.40;44.40
42037;DHT22;30340;52.004;5.908;2023-06-14T01:02:33;20.40;44.50
42037;DHT22;30340;52.004;5.908;2023-06-14T01:04:59;20.40;44.40
42037;DHT22;30340;52.004;5.908;2023-06-14T01:10:59;20.20;45.10
42037;DHT22;30340;52.004;5.908;2023-06-14T01:13:35;20.10;45.20
42037;DHT22;30340;52.004;5.908;2023-06-14T01:16:02;20.10;45.10
42037;DHT22;30340;52.004;5.908;2023-06-14T01:18:28;20.10;45.10
42037;DHT22;30340;52.004;5.908;2023-06-14T01:20:55;20.10;45.60
42037;DHT22;30340;52.004;5.908;2023-06-14T01:23:22;20.00;45.60
42037;DHT22;30340;52.004;5.908;2023-06-14T01:25:49;20.10;45.40
42037;DHT22;30340;52.004;5.908;2023-06-14T01:28:19;20.00;45.40
42037;DHT22;30340;52.004;5.908;2023-06-14T01:30:47;20.00;45.70
42037;DHT22;30340;52.004;5.908;2023-06-14T01:33:22;20.00;45.80
42037;DHT22;30340;52.004;5.908;2023-06-14T01:35:50;20.00;45.70
42037;DHT22;30340;52.004;5.908;2023-06-14T01:38:19;19.90;45.70
42037;DHT22;30340;52.004;5.908;2023-06-14T01:40:45;19.90;45.60
42037;DHT22;30340;52.004;5.908;2023-06-14T01:43:16;19.90;45.90
42037;DHT22;30340;52.004;5.908;2023-06-14T01:45:43;19.90;45.70
42037;DHT22;30340;52.004;5.908;2023-06-14T01:48:09;19.90;45.60
42037;DHT22;30340;52.004;5.908;2023-06-14T01:50:35;19.90;46.00
42037;DHT22;30340;52.004;5.908;2023-06-14T01:53:00;19.80;46.10
42037;DHT22;30340;52.004;5.908;2023-06-14T01:55:27;19.80;46.10
42037;DHT22;30340;52.004;5.908;2023-06-14T01:57:53;19.80;46.10
42037;DHT22;30340;52.004;5.908;2023-06-14T02:00:19;19.70;46.10
42037;DHT22;30340;52.004;5.908;2023-06-14T02:02:45;19.70;46.20
42037;DHT22;30340;52.004;5.908;2023-06-14T02:05:11;19.70;46.20
42037;DHT22;30340;52.004;5.908;2023-06-14T02:07:37;19.70;46.20
42037;DHT22;30340;52.004;5.908;2023-06-14T02:10:03;19.70;46.40
42037;DHT22;30340;52.004;5.908;2023-06-14T02:12:29;19.70;46.40
42037;DHT22;30340;52.004;5.908;2023-06-14T02:14:55;19.70;46.80
42037;DHT22;30340;52.004;5.908;2023-06-14T02:17:22;19.60;47.00
42037;DHT22;30340;52.004;5.908;2023-06-14T02:19:47;19.50;47.20
42037;DHT22;30340;52.004;5.908;2023-06-14T02:22:14;19.40;47.10
42037;DHT22;30340;52.004;5.908;2023-06-14T02:24:41;19.50;47.00
42037;DHT22;30340;52.004;5.908;2023-06-14T02:27:07;19.50;46.90
42037;DHT22;30340;52.004;5.908;2023-06-14T02:29:35;19.50;47.40
42037;DHT22;30340;52.004;5.908;2023-06-14T02:32:01;19.50;47.50
42037;DHT22;30340;52.004;5.908;2023-06-14T02:34:26;19.40;47.30
42037;DHT22;30340;52.004;5.908;2023-06-14T02:36:52;19.40;47.60
42037;DHT22;30340;52.004;5.908;2023-06-14T02:39:18;19.40;47.50
42037;DHT22;30340;52.004;5.908;2023-06-14T02:41:46;19.30;47.60
42037;DHT22;30340;52.004;5.908;2023-06-14T02:44:13;19.40;47.50
42037;DHT22;30340;52.004;5.908;2023-06-14T02:46:38;19.40;47.50
42037;DHT22;30340;52.004;5.908;2023-06-14T02:49:04;19.40;47.40
42037;DHT22;30340;52.004;5.908;2023-06-14T02:51:29;19.40;47.30
42037;DHT22;30340;52.004;5.908;2023-06-14T02:53:55;19.40;47.40
42037;DHT22;30340;52.004;5.908;2023-06-14T02:56:20;19.30;47.80
42037;DHT22;30340;52.004;5.908;2023-06-14T02:58:48;19.30;47.70
42037;DHT22;30340;52.004;5.908;2023-06-14T03:01:14;19.20;48.00
42037;DHT22;30340;52.004;5.908;2023-06-14T03:03:39;19.20;48.10
42037;DHT22;30340;52.004;5.908;2023-06-14T03:06:05;19.20;48.10
42037;DHT22;30340;52.004;5.908;2023-06-14T03:08:31;19.20;48.30
42037;DHT22;30340;52.004;5.908;2023-06-14T03:10:58;19.20;48.30
42037;DHT22;30340;52.004;5.908;2023-06-14T03:13:24;19.20;48.30
42037;DHT22;30340;52.004;5.908;2023-06-14T03:15:49;19.10;48.10
42037;DHT22;30340;52.004;5.908;2023-06-14T03:18:18;19.10;48.70
42037;DHT22;30340;52.004;5.908;2023-06-14T03:20:44;19.10;48.20
42037;DHT22;30340;52.004;5.908;2023-06-14T03:23:11;19.10;48.30
42037;DHT22;30340;52.004;5.908;2023-06-14T03:25:37;19.00;48.40
42037;DHT22;30340;52.004;5.908;2023-06-14T03:28:04;19.00;48.50
42037;DHT22;30340;52.004;5.908;2023-06-14T03:30:30;19.00;48.80
42037;DHT22;30340;52.004;5.908;2023-06-14T03:32:57;18.90;49.10
42037;DHT22;30340;52.004;5.908;2023-06-14T03:35:23;18.90;49.30
42037;DHT22;30340;52.004;5.908;2023-06-14T03:37:49;18.90;49.20
42037;DHT22;30340;52.004;5.908;2023-06-14T03:40:18;18.90;49.10
42037;DHT22;30340;52.004;5.908;2023-06-14T03:42:44;18.90;49.10
42037;DHT22;30340;52.004;5.908;2023-06-14T03:45:09;18.70;49.70
42037;DHT22;30340;52.004;5.908;2023-06-14T03:47:35;18.80;50.30
42037;DHT22;30340;52.004;5.908;2023-06-14T03:50:04;18.80;49.50
42037;DHT22;30340;52.004;5.908;2023-06-14T03:52:30;18.80;49.80
42037;DHT22;30340;52.004;5.908;2023-06-14T03:54:56;18.80;49.70
42037;DHT22;30340;52.004;5.908;2023-06-14T03:57:23;18.80;49.80
42037;DHT22;30340;52.004;5.908;2023-06-14T03:59:49;18.70;50.10
42037;DHT22;30340;52.004;5.908;2023-06-14T04:02:15;18.70;50.10
42037;DHT22;30340;52.004;5.908;2023-06-14T04:04:42;18.70;50.20
42037;DHT22;30340;52.004;5.908;2023-06-14T04:07:13;18.70;50.10
42037;DHT22;30340;52.004;5.908;2023-06-14T04:09:39;18.80;50.10
42037;DHT22;30340;52.004;5.908;2023-06-14T04:12:06;18.70;50.50
42037;DHT22;30340;52.004;5.908;2023-06-14T04:14:31;18.70;50.50
42037;DHT22;30340;52.004;5.908;2023-06-14T04:16:58;18.60;50.60
42037;DHT22;30340;52.004;5.908;2023-06-14T04:19:24;18.70;50.50
42037;DHT22;30340;52.004;5.908;2023-06-14T04:21:49;18.70;50.40
42037;DHT22;30340;52.004;5.908;2023-06-14T04:24:15;18.70;50.30
42037;DHT22;30340;52.004;5.908;2023-06-14T04:26:44;18.70;50.80
42037;DHT22;30340;52.004;5.908;2023-06-14T04:29:13;18.70;50.70
42037;DHT22;30340;52.004;5.908;2023-06-14T04:31:46;18.70;51.00
42037;DHT22;30340;52.004;5.908;2023-06-14T04:34:12;18.70;51.10
42037;DHT22;30340;52.004;5.908;2023-06-14T04:36:44;18.70;50.80
42037;DHT22;30340;52.004;5.908;2023-06-14T04:39:15;18.70;50.80
42037;DHT22;30340;52.004;5.908;2023-06-14T04:41:41;18.70;51.40
42037;DHT22;30340;52.004;5.908;2023-06-14T04:44:07;18.70;51.30
42037;DHT22;30340;52.004;5.908;2023-06-14T04:46:32;18.70;51.30
42037;DHT22;30340;52.004;5.908;2023-06-14T04:48:58;18.80;51.00
42037;DHT22;30340;52.004;5.908;2023-06-14T04:51:27;18.90;51.00
42037;DHT22;30340;52.004;5.908;2023-06-14T04:53:58;19.30;50.70
42037;DHT22;30340;52.004;5.908;2023-06-14T04:56:24;19.80;49.70
42037;DHT22;30340;52.004;5.908;2023-06-14T04:58:50;20.00;49.20
42037;DHT22;30340;52.004;5.908;2023-06-14T05:01:16;20.30;48.70
42037;DHT22;30340;52.004;5.908;2023-06-14T05:03:41;20.40;48.30
42037;DHT22;30340;52.004;5.908;2023-06-14T05:06:10;20.70;47.80
42037;DHT22;30340;52.004;5.908;2023-06-14T05:08:36;21.10;47.20
42037;DHT22;30340;52.004;5.908;2023-06-14T05:11:02;21.20;46.90
42037;DHT22;30340;52.004;5.908;2023-06-14T05:13:27;21.30;46.60
42037;DHT22;30340;52.004;5.908;2023-06-14T05:15:53;21.60;46.30
42037;DHT22;30340;52.004;5.908;2023-06-14T05:18:19;21.80;45.90
42037;DHT22;30340;52.004;5.908;2023-06-14T05:20:45;22.00;45.60
42037;DHT22;30340;52.004;5.908;2023-06-14T05:23:11;22.10;45.40
42037;DHT22;30340;52.004;5.908;2023-06-14T05:25:44;22.30;45.20
42037;DHT22;30340;52.004;5.908;2023-06-14T05:28:10;22.10;45.30
42037;DHT22;30340;52.004;5.908;2023-06-14T05:30:38;22.10;45.10
42037;DHT22;30340;52.004;5.908;2023-06-14T05:33:03;22.00;45.50
42037;DHT22;30340;52.004;5.908;2023-06-14T05:35:29;21.90;45.50
42037;DHT22;30340;52.004;5.908;2023-06-14T05:37:55;21.70;45.80
42037;DHT22;30340;52.004;5.908;2023-06-14T05:40:20;21.70;45.90
42037;DHT22;30340;52.004;5.908;2023-06-14T05:42:46;21.60;46.10
42037;DHT22;30340;52.004;5.908;2023-06-14T05:45:11;21.50;46.30
42037;DHT22;30340;52.004;5.908;2023-06-14T05:47:37;21.40;46.50
42037;DHT22;30340;52.004;5.908;2023-06-14T05:50:03;21.40;46.70
42037;DHT22;30340;52.004;5.908;2023-06-14T05:52:28;21.40;46.50
42037;DHT22;30340;52.004;5.908;2023-06-14T05:54:55;21.40;46.70
42037;DHT22;30340;52.004;5.908;2023-06-14T05:57:20;21.40;46.60
42037;DHT22;30340;52.004;5.908;2023-06-14T05:59:46;21.30;46.90
42037;DHT22;30340;52.004;5.908;2023-06-14T06:02:11;21.30;46.90
42037;DHT22;30340;52.004;5.908;2023-06-14T06:04:37;21.40;46.70
42037;DHT22;30340;52.004;5.908;2023-06-14T06:07:03;21.30;46.90
42037;DHT22;30340;52.004;5.908;2023-06-14T06:09:29;21.20;46.80
42037;DHT22;30340;52.004;5.908;2023-06-14T06:11:55;21.10;47.00
42037;DHT22;30340;52.004;5.908;2023-06-14T06:14:20;21.20;47.30
42037;DHT22;30340;52.004;5.908;2023-06-14T06:16:46;21.30;47.00
42037;DHT22;30340;52.004;5.908;2023-06-14T06:19:11;21.30;46.90
42037;DHT22;30340;52.004;5.908;2023-06-14T06:21:37;21.30;46.90
42037;DHT22;30340;52.004;5.908;2023-06-14T06:24:05;21.50;46.90
42037;DHT22;30340;52.004;5.908;2023-06-14T06:26:31;21.60;46.70
42037;DHT22;30340;52.004;5.908;2023-06-14T06:28:57;21.60;46.20
42037;DHT22;30340;52.004;5.908;2023-06-14T06:31:23;21.60;46.30
42037;DHT22;30340;52.004;5.908;2023-06-14T06:33:49;21.80;46.30
42037;DHT22;30340;52.004;5.908;2023-06-14T06:36:16;21.90;46.20
42037;DHT22;30340;52.004;5.908;2023-06-14T06:38:42;21.90;45.80
42037;DHT22;30340;52.004;5.908;2023-06-14T06:41:07;21.90;46.00
42037;DHT22;30340;52.004;5.908;2023-06-14T06:43:33;22.10;46.00
42037;DHT22;30340;52.004;5.908;2023-06-14T06:45:58;22.40;45.60
42037;DHT22;30340;52.004;5.908;2023-06-14T06:48:24;22.50;45.20
42037;DHT22;30340;52.004;5.908;2023-06-14T06:50:50;22.50;44.70
42037;DHT22;30340;52.004;5.908;2023-06-14T06:53:16;22.40;45.00
42037;DHT22;30340;52.004;5.908;2023-06-14T06:55:43;22.50;44.90
42037;DHT22;30340;52.004;5.908;2023-06-14T06:58:09;22.50;44.70
42037;DHT22;30340;52.004;5.908;2023-06-14T07:00:35;22.60;44.40
42037;DHT22;30340;52.004;5.908;2023-06-14T07:03:00;22.80;44.20
42037;DHT22;30340;52.004;5.908;2023-06-14T07:05:26;22.80;44.00
42037;DHT22;30340;52.004;5.908;2023-06-14T07:07:52;22.70;43.80
42037;DHT22;30340;52.004;5.908;2023-06-14T07:10:18;22.70;43.90
42037;DHT22;30340;52.004;5.908;2023-06-14T07:12:44;22.70;43.90
42037;DHT22;30340;52.004;5.908;2023-06-14T07:15:10;22.70;43.90
42037;DHT22;30340;52.004;5.908;2023-06-14T07:17:36;22.90;43.90
42037;DHT22;30340;52.004;5.908;2023-06-14T07:20:03;22.80;43.40
42037;DHT22;30340;52.004;5.908;2023-06-14T07:22:39;22.90;43.60
42037;DHT22;30340;52.004;5.908;2023-06-14T07:25:07;23.00;43.30
42037;DHT22;30340;52.004;5.908;2023-06-14T07:27:33;23.10;43.20
42037;DHT22;30340;52.004;5.908;2023-06-14T07:29:59;23.10;43.10
42037;DHT22;30340;52.004;5.908;2023-06-14T07:32:25;23.30;43.20
42037;DHT22;30340;52.004;5.908;2023-06-14T07:34:53;23.20;42.60
42037;DHT22;30340;52.004;5.908;2023-06-14T07:37:18;23.20;42.80
42037;DHT22;30340;52.004;5.908;2023-06-14T07:39:44;23.20;42.30
42037;DHT22;30340;52.004;5.908;2023-06-14T07:42:10;23.20;42.50
42037;DHT22;30340;52.004;5.908;2023-06-14T07:44:36;23.30;42.50
42037;DHT22;30340;52.004;5.908;2023-06-14T07:47:01;23.40;42.20
42037;DHT22;30340;52.004;5.908;2023-06-14T07:49:27;23.30;41.70
42037;DHT22;30340;52.004;5.908;2023-06-14T07:51:53;23.30;42.00
42037;DHT22;30340;52.004;5.908;2023-06-14T07:54:19;23.40;41.70
42037;DHT22;30340;52.004;5.908;2023-06-14T07:56:44;23.40;41.50
42037;DHT22;30340;52.004;5.908;2023-06-14T07:59:10;23.50;41.00
42037;DHT22;30340;52.004;5.908;2023-06-14T08:01:36;23.50;41.10
42037;DHT22;30340;52.004;5.908;2023-06-14T08:04:01;23.70;41.10
42037;DHT22;30340;52.004;5.908;2023-06-14T08:06:27;23.90;41.30
42037;DHT22;30340;52.004;5.908;2023-06-14T08:08:52;24.20;40.90
42037;DHT22;30340;52.004;5.908;2023-06-14T08:11:18;24.30;40.00
42037;DHT22;30340;52.004;5.908;2023-06-14T08:13:43;24.20;39.80
42037;DHT22;30340;52.004;5.908;2023-06-14T08:16:09;24.20;39.70
42037;DHT22;30340;52.004;5.908;2023-06-14T08:18:34;24.10;39.80
42037;DHT22;30340;52.004;5.908;2023-06-14T08:21:00;24.00;39.60
42037;DHT22;30340;52.004;5.908;2023-06-14T08:23:26;24.00;40.00
42037;DHT22;30340;52.004;5.908;2023-06-14T08:25:52;24.20;39.40
42037;DHT22;30340;52.004;5.908;2023-06-14T08:28:18;24.30;39.50
42037;DHT22;30340;52.004;5.908;2023-06-14T08:30:43;24.40;39.50
42037;DHT22;30340;52.004;5.908;2023-06-14T08:33:09;24.50;39.60
42037;DHT22;30340;52.004;5.908;2023-06-14T08:35:34;24.60;39.70
42037;DHT22;30340;52.004;5.908;2023-06-14T08:38:02;24.70;39.20
42037;DHT22;30340;52.004;5.908;2023-06-14T08:40:30;25.00;38.90
42037;DHT22;30340;52.004;5.908;2023-06-14T08:42:56;25.00;37.80
42037;DHT22;30340;52.004;5.908;2023-06-14T08:45:23;24.90;37.40
42037;DHT22;30340;52.004;5.908;2023-06-14T08:47:49;25.00;37.60
42037;DHT22;30340;52.004;5.908;2023-06-14T08:50:26;25.00;37.90
42037;DHT22;30340;52.004;5.908;2023-06-14T08:52:57;25.00;38.00
42037;DHT22;30340;52.004;5.908;2023-06-14T08:55:26;25.10;38.40
42037;DHT22;30340;52.004;5.908;2023-06-14T08:57:54;25.30;38.30
42037;DHT22;30340;52.004;5.908;2023-06-14T09:00:20;25.30;38.20
42037;DHT22;30340;52.004;5.908;2023-06-14T09:02:46;25.60;38.20
42037;DHT22;30340;52.004;5.908;2023-06-14T09:05:13;25.60;37.00
42037;DHT22;30340;52.004;5.908;2023-06-14T09:07:42;25.50;36.30
42037;DHT22;30340;52.004;5.908;2023-06-14T09:10:12;25.30;36.20
42037;DHT22;30340;52.004;5.908;2023-06-14T09:12:38;25.30;36.70
42037;DHT22;30340;52.004;5.908;2023-06-14T09:15:05;25.30;37.50
42037;DHT22;30340;52.004;5.908;2023-06-14T09:17:35;25.30;36.70
42037;DHT22;30340;52.004;5.908;2023-06-14T09:20:05;25.30;36.70
42037;DHT22;30340;52.004;5.908;2023-06-14T09:22:35;25.30;37.20
42037;DHT22;30340;52.004;5.908;2023-06-14T09:25:01;25.20;37.20
42037;DHT22;30340;52.004;5.908;2023-06-14T09:27:27;25.20;37.50
42037;DHT22;30340;52.004;5.908;2023-06-14T09:29:53;25.30;37.60
42037;DHT22;30340;52.004;5.908;2023-06-14T09:32:20;25.60;37.60
42037;DHT22;30340;52.004;5.908;2023-06-14T09:34:46;25.80;37.40
42037;DHT22;30340;52.004;5.908;2023-06-14T09:37:12;25.90;36.60
42037;DHT22;30340;52.004;5.908;2023-06-14T09:39:50;25.90;36.40
42037;DHT22;30340;52.004;5.908;2023-06-14T09:42:17;25.90;36.70
42037;DHT22;30340;52.004;5.908;2023-06-14T09:44:49;25.80;37.10
42037;DHT22;30340;52.004;5.908;2023-06-14T09:47:18;25.90;36.20
42037;DHT22;30340;52.004;5.908;2023-06-14T09:49:43;25.80;35.30
42037;DHT22;30340;52.004;5.908;2023-06-14T09:52:13;25.50;35.30
42037;DHT22;30340;52.004;5.908;2023-06-14T09:54:44;25.40;35.80
42037;DHT22;30340;52.004;5.908;2023-06-14T09:57:13;25.50;35.30
42037;DHT22;30340;52.004;5.908;2023-06-14T09:59:44;25.40;35.40
42037;DHT22;30340;52.004;5.908;2023-06-14T10:02:25;25.50;35.80
42037;DHT22;30340;52.004;5.908;2023-06-14T10:04:57;25.60;36.10
42037;DHT22;30340;52.004;5.908;2023-06-14T10:07:26;25.70;36.20
42037;DHT22;30340;52.004;5.908;2023-06-14T10:09:55;25.60;36.50
42037;DHT22;30340;52.004;5.908;2023-06-14T10:12:21;25.90;36.20
42037;DHT22;30340;52.004;5.908;2023-06-14T10:14:51;25.80;36.20
42037;DHT22;30340;52.004;5.908;2023-06-14T10:17:55;25.80;36.40
42037;DHT22;30340;52.004;5.908;2023-06-14T10:20:28;26.00;36.40
42037;DHT22;30340;52.004;5.908;2023-06-14T10:23:03;26.10;36.00
42037;DHT22;30340;52.004;5.908;2023-06-14T10:25:31;26.20;35.80
42037;DHT22;30340;52.004;5.908;2023-06-14T10:28:17;26.10;36.00
42037;DHT22;30340;52.004;5.908;2023-06-14T10:31:09;26.10;36.10
42037;DHT22;30340;52.004;5.908;2023-06-14T10:33:39;26.20;36.30
42037;DHT22;30340;52.004;5.908;2023-06-14T10:36:26;26.20;35.80
42037;DHT22;30340;52.004;5.908;2023-06-14T10:39:05;26.00;36.30
42037;DHT22;30340;52.004;5.908;2023-06-14T10:41:38;26.10;35.90
42037;DHT22;30340;52.004;5.908;2023-06-14T10:46:40;26.20;34.60
42037;DHT22;30340;52.004;5.908;2023-06-14T10:49:06;26.10;34.60
42037;DHT22;30340;52.004;5.908;2023-06-14T10:51:52;26.00;34.70
42037;DHT22;30340;52.004;5.908;2023-06-14T10:54:21;25.80;35.10
42037;DHT22;30340;52.004;5.908;2023-06-14T10:56:48;25.70;35.40
42037;DHT22;30340;52.004;5.908;2023-06-14T10:59:16;25.80;35.20
42037;DHT22;30340;52.004;5.908;2023-06-14T11:04:20;26.20;35.10
42037;DHT22;30340;52.004;5.908;2023-06-14T11:06:50;26.20;34.70
42037;DHT22;30340;52.004;5.908;2023-06-14T11:09:51;26.00;34.10
42037;DHT22;30340;52.004;5.908;2023-06-14T11:12:22;25.90;34.70
42037;DHT22;30340;52.004;5.908;2023-06-14T11:14:48;25.80;34.30
42037;DHT22;30340;52.004;5.908;2023-06-14T11:17:14;25.80;34.80
42037;DHT22;30340;52.004;5.908;2023-06-14T11:19:40;25.80;34.80
42037;DHT22;30340;52.004;5.908;2023-06-14T11:22:05;25.70;34.70
42037;DHT22;30340;52.004;5.908;2023-06-14T11:24:32;25.70;35.00
42037;DHT22;30340;52.004;5.908;2023-06-14T11:26:58;25.80;35.10
42037;DHT22;30340;52.004;5.908;2023-06-14T11:29:23;25.90;35.20
42037;DHT22;30340;52.004;5.908;2023-06-14T11:31:50;26.00;34.80
42037;DHT22;30340;52.004;5.908;2023-06-14T11:34:16;26.10;34.80
42037;DHT22;30340;52.004;5.908;2023-06-14T11:36:42;26.30;34.60
42037;DHT22;30340;52.004;5.908;2023-06-14T11:39:08;26.60;34.60
42037;DHT22;30340;52.004;5.908;2023-06-14T11:41:44;26.50;34.70
42037;DHT22;30340;52.004;5.908;2023-06-14T11:44:11;26.40;35.00
42037;DHT22;30340;52.004;5.908;2023-06-14T11:46:37;26.20;35.30
42037;DHT22;30340;52.004;5.908;2023-06-14T11:49:03;26.40;35.50
42037;DHT22;30340;52.004;5.908;2023-06-14T11:51:33;26.50;35.50
42037;DHT22;30340;52.004;5.908;2023-06-14T11:54:03;26.30;35.10
42037;DHT22;30340;52.004;5.908;2023-06-14T11:56:30;26.00;35.60
42037;DHT22;30340;52.004;5.908;2023-06-14T11:58:57;26.00;35.80
42037;DHT22;30340;52.004;5.908;2023-06-14T12:01:23;25.90;35.70
42037;DHT22;30340;52.004;5.908;2023-06-14T12:03:53;25.90;35.20
42037;DHT22;30340;52.004;5.908;2023-06-14T12:06:27;25.90;35.40
42037;DHT22;30340;52.004;5.908;2023-06-14T12:08:58;26.10;35.20
42037;DHT22;30340;52.004;5.908;2023-06-14T12:11:31;26.00;35.00
42037;DHT22;30340;52.004;5.908;2023-06-14T12:13:57;26.00;34.70
42037;DHT22;30340;52.004;5.908;2023-06-14T12:16:30;25.90;34.80
42037;DHT22;30340;52.004;5.908;2023-06-14T12:19:00;26.20;35.00
42037;DHT22;30340;52.004;5.908;2023-06-14T12:21:26;26.30;34.90
42037;DHT22;30340;52.004;5.908;2023-06-14T12:23:53;26.20;34.90
42037;DHT22;30340;52.004;5.908;2023-06-14T12:26:19;26.30;35.30
42037;DHT22;30340;52.004;5.908;2023-06-14T12:28:47;26.40;34.90
42037;DHT22;30340;52.004;5.908;2023-06-14T12:31:16;26.20;35.00
42037;DHT22;30340;52.004;5.908;2023-06-14T12:33:42;26.10;35.40
42037;DHT22;30340;52.004;5.908;2023-06-14T12:36:09;26.40;35.00
42037;DHT22;30340;52.004;5.908;2023-06-14T12:38:36;26.40;34.90
42037;DHT22;30340;52.004;5.908;2023-06-14T12:41:02;26.50;34.60
42037;DHT22;30340;52.004;5.908;2023-06-14T12:43:27;26.40;34.60
42037;DHT22;30340;52.004;5.908;2023-06-14T12:45:53;26.40;35.00
42037;DHT22;30340;52.004;5.908;2023-06-14T12:48:19;26.70;35.50
42037;DHT22;30340;52.004;5.908;2023-06-14T12:50:45;26.70;35.40
42037;DHT22;30340;52.004;5.908;2023-06-14T12:53:11;26.70;35.20
42037;DHT22;30340;52.004;5.908;2023-06-14T12:55:36;26.60;35.30
42037;DHT22;30340;52.004;5.908;2023-06-14T12:58:02;26.60;35.30
42037;DHT22;30340;52.004;5.908;2023-06-14T13:00:27;26.70;35.60
42037;DHT22;30340;52.004;5.908;2023-06-14T13:02:55;26.90;35.80
42037;DHT22;30340;52.004;5.908;2023-06-14T13:05:20;27.10;35.00
42037;DHT22;30340;52.004;5.908;2023-06-14T13:07:46;27.00;35.40
42037;DHT22;30340;52.004;5.908;2023-06-14T13:10:12;27.10;34.40
42037;DHT22;30340;52.004;5.908;2023-06-14T13:12:37;27.10;34.20
42037;DHT22;30340;52.004;5.908;2023-06-14T13:15:03;27.10;33.70
42037;DHT22;30340;52.004;5.908;2023-06-14T13:17:29;27.10;33.60
42037;DHT22;30340;52.004;5.908;2023-06-14T13:19:54;27.20;34.30
42037;DHT22;30340;52.004;5.908;2023-06-14T13:22:20;27.30;33.90
42037;DHT22;30340;52.004;5.908;2023-06-14T13:24:45;27.20;34.10
42037;DHT22;30340;52.004;5.908;2023-06-14T13:27:11;27.00;34.00
42037;DHT22;30340;52.004;5.908;2023-06-14T13:29:39;27.00;34.40
42037;DHT22;30340;52.004;5.908;2023-06-14T13:32:05;27.00;34.30
42037;DHT22;30340;52.004;5.908;2023-06-14T13:34:31;27.30;34.20
42037;DHT22;30340;52.004;5.908;2023-06-14T13:36:57;27.50;33.80
42037;DHT22;30340;52.004;5.908;2023-06-14T13:39:24;27.30;33.70
42037;DHT22;30340;52.004;5.908;2023-06-14T13:41:50;27.50;33.90
42037;DHT22;30340;52.004;5.908;2023-06-14T13:44:16;27.50;33.80
42037;DHT22;30340;52.004;5.908;2023-06-14T13:46:44;27.50;34.20
42037;DHT22;30340;52.004;5.908;2023-06-14T13:49:10;27.50;34.30
42037;DHT22;30340;52.004;5.908;2023-06-14T13:51:35;27.50;34.10
42037;DHT22;30340;52.004;5.908;2023-06-14T13:54:01;27.80;33.90
42037;DHT22;30340;52.004;5.908;2023-06-14T13:56:27;27.90;33.70
42037;DHT22;30340;52.004;5.908;2023-06-14T13:58:52;27.70;33.40
42037;DHT22;30340;52.004;5.908;2023-06-14T14:01:18;27.60;33.80
42037;DHT22;30340;52.004;5.908;2023-06-14T14:03:46;27.70;33.90
42037;DHT22;30340;52.004;5.908;2023-06-14T14:06:12;27.70;33.60
42037;DHT22;30340;52.004;5.908;2023-06-14T14:08:38;27.60;33.20
42037;DHT22;30340;52.004;5.908;2023-06-14T14:11:05;27.50;33.70
42037;DHT22;30340;52.004;5.908;2023-06-14T14:13:31;27.60;33.80
42037;DHT22;30340;52.004;5.908;2023-06-14T14:15:57;27.50;34.10
42037;DHT22;30340;52.004;5.908;2023-06-14T14:18:22;27.30;34.40
42037;DHT22;30340;52.004;5.908;2023-06-14T14:20:48;27.30;34.50
42037;DHT22;30340;52.004;5.908;2023-06-14T14:23:14;27.30;34.20
42037;DHT22;30340;52.004;5.908;2023-06-14T14:25:40;27.20;34.00
42037;DHT22;30340;52.004;5.908;2023-06-14T14:28:05;27.30;33.80
42037;DHT22;30340;52.004;5.908;2023-06-14T14:30:31;27.40;32.40
42037;DHT22;30340;52.004;5.908;2023-06-14T14:32:58;27.40;32.20
42037;DHT22;30340;52.004;5.908;2023-06-14T14:35:23;27.30;32.30
42037;DHT22;30340;52.004;5.908;2023-06-14T14:37:51;27.40;32.30
42037;DHT22;30340;52.004;5.908;2023-06-14T14:40:17;27.60;32.20
42037;DHT22;30340;52.004;5.908;2023-06-14T14:42:42;27.60;32.40
42037;DHT22;30340;52.004;5.908;2023-06-14T14:45:08;27.50;32.90
42037;DHT22;30340;52.004;5.908;2023-06-14T14:47:34;27.60;33.00
42037;DHT22;30340;52.004;5.908;2023-06-14T14:50:00;27.90;33.10
42037;DHT22;30340;52.004;5.908;2023-06-14T14:52:25;27.90;32.80
42037;DHT22;30340;52.004;5.908;2023-06-14T14:54:52;27.70;32.90
42037;DHT22;30340;52.004;5.908;2023-06-14T14:57:18;27.60;33.30
42037;DHT22;30340;52.004;5.908;2023-06-14T14:59:44;27.60;33.30
42037;DHT22;30340;52.004;5.908;2023-06-14T15:02:09;27.80;33.20
42037;DHT22;30340;52.004;5.908;2023-06-14T15:04:35;28.10;33.10
42037;DHT22;30340;52.004;5.908;2023-06-14T15:07:01;28.30;33.10
42037;DHT22;30340;52.004;5.908;2023-06-14T15:09:26;28.50;32.80
42037;DHT22;30340;52.004;5.908;2023-06-14T15:11:52;28.20;32.30
42037;DHT22;30340;52.004;5.908;2023-06-14T15:14:18;27.90;31.90
42037;DHT22;30340;52.004;5.908;2023-06-14T15:16:47;27.90;33.00
42037;DHT22;30340;52.004;5.908;2023-06-14T15:19:12;27.90;32.50
42037;DHT22;30340;52.004;5.908;2023-06-14T15:21:38;28.10;32.60
42037;DHT22;30340;52.004;5.908;2023-06-14T15:24:04;28.30;32.70
42037;DHT22;30340;52.004;5.908;2023-06-14T15:26:29;28.20;32.30
42037;DHT22;30340;52.004;5.908;2023-06-14T15:28:55;28.20;32.70
42037;DHT22;30340;52.004;5.908;2023-06-14T15:31:20;28.20;33.00
42037;DHT22;30340;52.004;5.908;2023-06-14T15:33:48;28.10;33.30
42037;DHT22;30340;52.004;5.908;2023-06-14T15:36:13;28.00;33.60
42037;DHT22;30340;52.004;5.908;2023-06-14T15:38:39;28.10;34.40